createdAt,value
2023-02-16T00:01:27.455Z,18.80
2023-02-16T00:03:56.376Z,18.87
2023-02-16T00:06:24.916Z,18.07
2023-02-16T00:08:54.652Z,17.73
2023-02-16T00:11:42.365Z,20.50
2023-02-16T00:14:13.212Z,20.43
2023-02-16T00:16:41.807Z,21.03
2023-02-16T00:19:21.519Z,19.60
2023-02-16T00:21:50.496Z,19.27
2023-02-16T00:24:19.234Z,20.33
2023-02-16T00:26:48.566Z,19.63
2023-02-16T00:29:22.373Z,19.47
2023-02-16T00:31:51.463Z,19.93
2023-02-16T00:34:30.860Z,18.93
2023-02-16T00:37:00.151Z,20.73
2023-02-16T00:39:28.907Z,18.27
2023-02-16T00:41:58.485Z,20.63
2023-02-16T00:44:32.275Z,20.77
2023-02-16T00:47:01.334Z,20.27
2023-02-16T00:49:29.811Z,19.60
2023-02-16T00:51:58.427Z,17.13
2023-02-16T00:54:27.028Z,19.50
2023-02-16T00:56:55.664Z,19.67
2023-02-16T00:59:24.780Z,20.10
2023-02-16T01:01:54.856Z,20.13
2023-02-16T01:04:25.631Z,20.90
2023-02-16T01:07:11.711Z,21.80
2023-02-16T01:09:58.140Z,21.43
2023-02-16T01:12:26.860Z,22.20
2023-02-16T01:14:56.271Z,21.27
2023-02-16T01:17:26.531Z,18.60
2023-02-16T01:19:55.120Z,20.37
2023-02-16T01:22:23.588Z,22.70
2023-02-16T01:24:52.251Z,20.10
2023-02-16T01:27:20.920Z,21.60
2023-02-16T01:29:49.557Z,21.30
2023-02-16T01:32:18.372Z,21.43
2023-02-16T01:34:48.316Z,21.50
2023-02-16T01:37:17.624Z,21.77
2023-02-16T01:39:46.404Z,21.57
2023-02-16T01:42:20.093Z,20.33
2023-02-16T01:44:51.983Z,20.40
2023-02-16T01:47:28.252Z,21.50
2023-02-16T01:49:58.299Z,20.23
2023-02-16T01:52:28.794Z,20.77
2023-02-16T01:55:00.170Z,20.33
2023-02-16T01:57:32.092Z,20.63
2023-02-16T02:00:10.654Z,21.00
2023-02-16T02:02:40.860Z,20.30
2023-02-16T02:05:37.731Z,21.03
2023-02-16T02:08:12.718Z,19.03
2023-02-16T02:10:46.199Z,19.13
2023-02-16T02:13:17.191Z,19.63
2023-02-16T02:15:45.866Z,19.37
2023-02-16T02:18:14.516Z,19.37
2023-02-16T02:21:17.729Z,19.23
2023-02-16T02:23:51.195Z,18.30
2023-02-16T02:26:43.729Z,19.33
2023-02-16T02:29:28.856Z,16.90
2023-02-16T02:32:01.346Z,17.30
2023-02-16T02:34:35.039Z,17.47
2023-02-16T02:37:07.822Z,16.83
2023-02-16T02:39:42.195Z,17.83
2023-02-16T02:42:13.961Z,18.80
2023-02-16T02:44:47.967Z,18.03
2023-02-16T02:47:16.454Z,17.63
2023-02-16T02:49:50.722Z,17.00
2023-02-16T02:52:19.387Z,18.23
2023-02-16T02:55:06.253Z,18.13
2023-02-16T02:57:55.585Z,16.33
2023-02-16T03:00:44.149Z,17.93
2023-02-16T03:03:14.940Z,17.77
2023-02-16T03:05:45.194Z,18.40
2023-02-16T03:08:15.314Z,19.00
2023-02-16T03:11:03.485Z,17.90
2023-02-16T03:13:34.830Z,21.10
2023-02-16T03:16:06.915Z,20.67
2023-02-16T03:18:54.923Z,21.73
2023-02-16T03:21:41.724Z,21.27
2023-02-16T03:24:28.714Z,21.30
2023-02-16T03:27:15.327Z,22.67
2023-02-16T03:29:44.162Z,22.00
2023-02-16T03:32:14.260Z,20.97
2023-02-16T03:34:42.978Z,22.30
2023-02-16T03:37:11.692Z,21.80
2023-02-16T03:39:54.143Z,23.20
2023-02-16T03:42:24.039Z,22.40
2023-02-16T03:44:52.676Z,21.60
2023-02-16T03:47:22.780Z,23.20
2023-02-16T03:49:51.435Z,23.73
2023-02-16T03:52:19.910Z,23.10
2023-02-16T03:54:48.613Z,24.50
2023-02-16T03:57:17.199Z,23.07
2023-02-16T03:59:45.661Z,22.87
2023-02-16T04:02:14.253Z,23.23
2023-02-16T04:04:44.264Z,24.63
2023-02-16T04:07:12.719Z,23.37
2023-02-16T04:09:41.300Z,25.27
2023-02-16T04:12:27.371Z,25.87
2023-02-16T04:14:56.027Z,25.53
2023-02-16T04:17:24.606Z,24.93
2023-02-16T04:19:54.459Z,24.50
2023-02-16T04:22:23.111Z,26.37
2023-02-16T04:24:51.790Z,26.63
2023-02-16T04:27:20.274Z,25.67
2023-02-16T04:29:48.879Z,26.33
2023-02-16T04:32:17.570Z,27.53
2023-02-16T04:34:46.095Z,27.23
2023-02-16T04:37:16.338Z,27.83
2023-02-16T04:39:45.020Z,27.10
2023-02-16T04:42:13.511Z,26.87
2023-02-16T04:44:42.099Z,29.43
2023-02-16T04:47:10.679Z,27.07
2023-02-16T04:49:39.269Z,28.37
2023-02-16T04:52:07.871Z,26.07
2023-02-16T04:54:37.737Z,28.07
2023-02-16T04:57:06.549Z,27.30
2023-02-16T04:59:35.127Z,26.87
2023-02-16T05:02:03.588Z,27.93
2023-02-16T05:04:32.170Z,29.00
2023-02-16T05:07:00.829Z,27.17
2023-02-16T05:09:29.304Z,27.17
2023-02-16T05:12:17.029Z,28.30
2023-02-16T05:14:48.483Z,28.13
2023-02-16T05:17:18.430Z,29.30
2023-02-16T05:19:47.948Z,28.70
2023-02-16T05:22:16.445Z,27.70
2023-02-16T05:24:45.507Z,28.47
2023-02-16T05:27:16.984Z,28.70
2023-02-16T05:29:45.638Z,28.07
2023-02-16T05:32:14.264Z,26.77
2023-02-16T05:34:44.473Z,29.47
2023-02-16T05:37:13.301Z,27.83
2023-02-16T05:39:41.891Z,28.13
2023-02-16T05:42:10.798Z,29.30
2023-02-16T05:44:40.788Z,29.50
2023-02-16T05:47:09.402Z,30.17
2023-02-16T05:49:37.872Z,28.03
2023-02-16T05:52:06.508Z,29.37
2023-02-16T05:54:35.315Z,30.90
2023-02-16T05:57:03.969Z,28.57
2023-02-16T05:59:32.571Z,30.57
2023-02-16T06:02:02.586Z,29.23
2023-02-16T06:04:32.703Z,29.37
2023-02-16T06:07:01.338Z,28.60
2023-02-16T06:09:31.532Z,28.53
2023-02-16T06:12:02.229Z,27.00
2023-02-16T06:14:33.278Z,28.33
2023-02-16T06:17:09.097Z,27.63
2023-02-16T06:19:41.760Z,28.03
2023-02-16T06:22:10.342Z,26.93
2023-02-16T06:24:39.929Z,26.20
2023-02-16T06:27:08.892Z,26.37
2023-02-16T06:29:37.571Z,24.77
2023-02-16T06:32:07.872Z,26.40
2023-02-16T06:34:40.317Z,26.77
2023-02-16T06:37:11.192Z,26.90
2023-02-16T06:39:39.830Z,25.73
2023-02-16T06:42:08.440Z,24.37
2023-02-16T06:44:37.409Z,25.53
2023-02-16T06:47:07.385Z,25.17
2023-02-16T06:49:35.918Z,22.07
2023-02-16T06:52:04.523Z,23.60
2023-02-16T06:54:33.123Z,23.20
2023-02-16T06:57:01.677Z,23.87
2023-02-16T06:59:30.161Z,22.30
2023-02-16T07:01:58.869Z,22.37
2023-02-16T07:04:28.992Z,22.23
2023-02-16T07:06:57.888Z,21.17
2023-02-16T07:09:26.427Z,21.00
2023-02-16T07:11:55.010Z,20.50
2023-02-16T07:14:23.799Z,21.47
2023-02-16T07:16:52.278Z,20.73
2023-02-16T07:19:20.948Z,19.57
2023-02-16T07:21:51.060Z,20.37
2023-02-16T07:24:19.673Z,26.87
2023-02-16T07:26:48.245Z,20.40
2023-02-16T07:29:16.743Z,19.73
2023-02-16T07:31:47.996Z,19.83
2023-02-16T07:34:17.040Z,19.37
2023-02-16T07:36:45.663Z,18.03
2023-02-16T07:39:15.527Z,18.53
2023-02-16T07:41:44.127Z,19.17
2023-02-16T07:44:12.807Z,18.23
2023-02-16T07:46:41.301Z,19.83
2023-02-16T07:49:09.968Z,18.73
2023-02-16T07:51:40.552Z,17.87
2023-02-16T07:54:09.037Z,18.33
2023-02-16T07:56:41.203Z,19.07
2023-02-16T07:59:09.775Z,20.63
2023-02-16T08:01:40.170Z,18.80
2023-02-16T08:04:08.594Z,18.03
2023-02-16T08:06:37.317Z,16.57
2023-02-16T08:09:06.024Z,19.13
2023-02-16T08:11:34.711Z,17.17
2023-02-16T08:14:04.785Z,17.67
2023-02-16T08:16:33.538Z,18.30
2023-02-16T08:19:03.640Z,18.20
2023-02-16T08:21:32.978Z,17.73
2023-02-16T08:24:02.732Z,19.00
2023-02-16T08:26:34.724Z,19.07
2023-02-16T08:29:05.061Z,16.50
2023-02-16T08:31:35.045Z,19.43
2023-02-16T08:34:04.430Z,17.53
2023-02-16T08:36:34.599Z,19.70
2023-02-16T08:39:04.160Z,19.27
2023-02-16T08:41:34.028Z,19.07
2023-02-16T08:44:04.269Z,18.80
2023-02-16T08:46:33.231Z,19.03
2023-02-16T08:49:02.308Z,18.77
2023-02-16T08:51:32.518Z,19.50
2023-02-16T08:54:01.113Z,17.97
2023-02-16T08:56:30.340Z,15.97
2023-02-16T08:58:58.929Z,18.07
2023-02-16T09:01:29.343Z,18.80
2023-02-16T09:03:58.998Z,19.57
2023-02-16T09:06:27.655Z,18.37
2023-02-16T09:08:56.959Z,18.77
2023-02-16T09:11:26.363Z,19.10
2023-02-16T09:13:54.967Z,18.43
2023-02-16T09:16:24.009Z,18.57
2023-02-16T09:18:54.380Z,18.13
2023-02-16T09:21:25.661Z,19.33
2023-02-16T09:23:56.418Z,17.60
2023-02-16T09:26:25.710Z,18.37
2023-02-16T09:28:54.751Z,18.73
2023-02-16T09:31:26.375Z,17.77
2023-02-16T09:33:57.732Z,17.90
2023-02-16T09:36:27.284Z,17.97
2023-02-16T09:38:56.441Z,17.80
2023-02-16T09:41:38.784Z,18.77
2023-02-16T09:44:10.957Z,18.23
2023-02-16T09:46:40.129Z,18.90
2023-02-16T09:49:19.680Z,19.10
2023-02-16T09:51:48.676Z,17.73
2023-02-16T09:54:21.927Z,17.73
2023-02-16T09:56:53.036Z,18.30
2023-02-16T09:59:33.201Z,18.20
2023-02-16T10:02:06.931Z,16.80
2023-02-16T10:04:43.866Z,14.47
2023-02-16T10:07:18.172Z,14.37
2023-02-16T10:09:49.527Z,15.07
2023-02-16T10:12:21.065Z,15.50
2023-02-16T10:14:50.954Z,13.27
2023-02-16T10:17:28.382Z,14.83
2023-02-16T10:20:01.479Z,13.93
2023-02-16T10:22:32.605Z,13.40
2023-02-16T10:25:02.534Z,13.17
2023-02-16T10:27:35.521Z,13.60
2023-02-16T10:30:04.054Z,13.00
2023-02-16T10:32:39.434Z,12.37
2023-02-16T10:35:17.507Z,13.17
2023-02-16T10:38:03.565Z,12.73
2023-02-16T10:40:35.351Z,12.17
2023-02-16T10:43:07.483Z,12.87
2023-02-16T10:45:39.170Z,12.00
2023-02-16T10:48:08.554Z,11.30
2023-02-16T10:50:41.148Z,11.93
2023-02-16T10:53:12.204Z,11.93
2023-02-16T10:55:40.665Z,11.53
2023-02-16T10:58:15.783Z,11.60
2023-02-16T11:00:48.381Z,11.57
2023-02-16T11:03:17.416Z,11.53
2023-02-16T11:05:47.321Z,11.33
2023-02-16T11:08:15.800Z,11.83
2023-02-16T11:10:48.949Z,11.40
2023-02-16T11:13:35.319Z,10.33
2023-02-16T11:16:07.103Z,10.53
2023-02-16T11:18:37.944Z,12.53
2023-02-16T11:21:08.873Z,11.57
2023-02-16T11:23:38.468Z,10.73
2023-02-16T11:26:07.663Z,10.77
2023-02-16T11:28:37.451Z,11.20
2023-02-16T11:31:12.628Z,12.63
2023-02-16T11:33:42.278Z,11.57
2023-02-16T11:36:22.859Z,11.90
2023-02-16T11:38:59.293Z,11.43
2023-02-16T11:41:28.092Z,11.53
2023-02-16T11:43:57.749Z,11.57
2023-02-16T11:46:26.598Z,11.20
2023-02-16T11:48:55.416Z,11.87
2023-02-16T11:51:36.665Z,12.57
2023-02-16T11:54:07.757Z,11.43
2023-02-16T11:56:37.021Z,10.33
2023-02-16T11:59:14.802Z,10.53
2023-02-16T12:02:01.218Z,9.87
2023-02-16T12:04:38.435Z,9.13
2023-02-16T12:07:15.535Z,8.57
2023-02-16T12:09:47.994Z,9.50
2023-02-16T12:12:18.300Z,8.87
2023-02-16T12:14:52.810Z,8.07
2023-02-16T12:17:27.902Z,9.00
2023-02-16T12:20:00.671Z,7.83
2023-02-16T12:22:35.407Z,7.40
2023-02-16T12:25:08.156Z,8.40
2023-02-16T12:27:39.425Z,7.70
2023-02-16T12:30:14.773Z,6.57
2023-02-16T12:32:49.915Z,5.60
2023-02-16T12:35:27.052Z,5.77
2023-02-16T12:38:00.568Z,5.27
2023-02-16T12:40:34.639Z,6.00
2023-02-16T12:43:07.604Z,5.13
2023-02-16T12:45:38.254Z,5.17
2023-02-16T12:48:10.230Z,5.03
2023-02-16T12:50:41.932Z,5.23
2023-02-16T12:53:18.747Z,5.23
2023-02-16T12:55:49.233Z,4.63
2023-02-16T12:58:20.439Z,4.30
2023-02-16T13:00:51.205Z,3.93
2023-02-16T13:03:26.278Z,4.23
2023-02-16T13:05:58.834Z,4.33
2023-02-16T13:08:31.285Z,3.97
2023-02-16T13:11:05.370Z,4.13
2023-02-16T13:13:35.220Z,4.20
2023-02-16T13:16:17.517Z,3.43
2023-02-16T13:18:57.616Z,3.93
2023-02-16T13:21:50.981Z,4.20
2023-02-16T13:24:28.048Z,3.57
2023-02-16T13:27:07.707Z,3.00
2023-02-16T13:29:42.255Z,3.30
2023-02-16T13:32:31.769Z,4.00
2023-02-16T13:35:06.599Z,3.17
2023-02-16T13:37:55.650Z,4.23
2023-02-16T13:40:43.540Z,3.40
2023-02-16T13:43:16.243Z,3.30
2023-02-16T13:45:46.021Z,3.60
2023-02-16T13:48:18.607Z,3.30
2023-02-16T13:50:48.441Z,3.70
2023-02-16T13:53:21.555Z,2.90
2023-02-16T13:55:52.740Z,3.30
2023-02-16T13:58:32.594Z,3.30
2023-02-16T14:01:01.434Z,3.20
2023-02-16T14:03:38.867Z,3.07
2023-02-16T14:06:40.625Z,2.90
2023-02-16T14:09:27.628Z,2.80
2023-02-16T14:12:15.536Z,2.93
2023-02-16T14:14:49.628Z,2.80
2023-02-16T14:17:25.466Z,3.10
2023-02-16T14:19:56.212Z,3.43
2023-02-16T14:22:26.579Z,2.63
2023-02-16T14:24:56.620Z,2.70
2023-02-16T14:27:47.552Z,3.27
2023-02-16T14:30:28.127Z,2.53
2023-02-16T14:32:59.380Z,2.90
2023-02-16T14:35:30.891Z,2.53
2023-02-16T14:37:59.953Z,2.90
2023-02-16T14:40:47.521Z,2.73
2023-02-16T14:43:28.280Z,2.30
2023-02-16T14:46:23.854Z,2.73
2023-02-16T14:49:11.496Z,2.53
2023-02-16T14:51:46.292Z,2.90
2023-02-16T14:54:27.049Z,2.67
2023-02-16T14:56:56.837Z,2.53
2023-02-16T14:59:30.462Z,2.83
2023-02-16T15:01:59.310Z,2.57
2023-02-16T15:04:31.194Z,2.27
2023-02-16T15:07:01.040Z,2.90
2023-02-16T15:09:31.249Z,2.40
2023-02-16T15:12:30.467Z,2.13
2023-02-16T15:15:01.568Z,2.67
2023-02-16T15:17:32.980Z,2.50
2023-02-16T15:20:05.406Z,2.43
2023-02-16T15:22:34.087Z,2.27
2023-02-16T15:25:03.564Z,2.30
2023-02-16T15:27:33.124Z,2.20
2023-02-16T15:30:07.685Z,2.10
2023-02-16T15:32:36.231Z,2.17
2023-02-16T15:35:12.446Z,2.30
2023-02-16T15:37:41.390Z,2.30
2023-02-16T15:40:25.582Z,2.23
2023-02-16T15:42:55.922Z,2.30
2023-02-16T15:45:35.393Z,2.40
2023-02-16T15:48:24.089Z,2.00
2023-02-16T15:50:54.838Z,2.00
2023-02-16T15:53:34.770Z,2.07
2023-02-16T15:56:04.715Z,2.20
2023-02-16T15:58:33.860Z,1.97
2023-02-16T16:01:03.933Z,2.10
2023-02-16T16:03:32.792Z,2.03
2023-02-16T16:06:05.050Z,1.90
2023-02-16T16:08:34.193Z,2.30
2023-02-16T16:11:03.241Z,2.20
2023-02-16T16:13:32.538Z,2.33
2023-02-16T16:16:04.911Z,2.20
2023-02-16T16:18:43.428Z,2.40
2023-02-16T16:21:29.861Z,2.33
2023-02-16T16:24:01.088Z,2.00
2023-02-16T16:26:30.848Z,1.97
2023-02-16T16:28:59.345Z,1.83
2023-02-16T16:31:41.755Z,2.40
2023-02-16T16:34:14.298Z,2.00
2023-02-16T16:36:47.052Z,2.33
2023-02-16T16:39:23.597Z,2.30
2023-02-16T16:42:07.017Z,2.40
2023-02-16T16:44:36.459Z,2.10
2023-02-16T16:47:23.919Z,1.60
2023-02-16T16:49:55.987Z,2.10
2023-02-16T16:52:32.042Z,2.20
2023-02-16T16:55:00.544Z,2.00
2023-02-16T16:57:30.281Z,2.37
2023-02-16T16:59:59.672Z,2.10
2023-02-16T17:02:28.137Z,1.90
2023-02-16T17:04:58.000Z,3.10
2023-02-16T17:07:26.703Z,2.47
2023-02-16T17:09:55.663Z,2.20
2023-02-16T17:12:24.958Z,2.00
2023-02-16T17:14:53.896Z,2.00
2023-02-16T17:17:22.386Z,2.20
2023-02-16T17:19:50.851Z,2.33
2023-02-16T17:22:21.621Z,2.50
2023-02-16T17:24:50.293Z,2.67
2023-02-16T17:27:19.789Z,2.40
2023-02-16T17:29:48.429Z,2.33
2023-02-16T17:32:17.202Z,1.90
2023-02-16T17:34:45.702Z,1.93
2023-02-16T17:37:14.655Z,2.00
2023-02-16T17:39:44.633Z,2.00
2023-02-16T17:42:13.426Z,2.00
2023-02-16T17:44:42.038Z,2.07
2023-02-16T17:47:12.227Z,1.70
2023-02-16T17:49:40.845Z,1.93
2023-02-16T17:52:12.015Z,2.00
2023-02-16T17:54:40.822Z,2.03
2023-02-16T17:57:11.623Z,2.20
2023-02-16T17:59:41.500Z,2.03
2023-02-16T18:02:11.319Z,2.10
2023-02-16T18:04:41.813Z,2.13
2023-02-16T18:07:13.418Z,2.70
2023-02-16T18:09:42.238Z,2.50
2023-02-16T18:12:12.127Z,2.37
2023-02-16T18:14:40.983Z,2.20
2023-02-16T18:17:09.655Z,2.50
2023-02-16T18:19:38.124Z,2.10
2023-02-16T18:22:06.726Z,2.13
2023-02-16T18:24:35.302Z,2.20
2023-02-16T18:27:03.766Z,2.37
2023-02-16T18:29:33.704Z,2.20
2023-02-16T18:32:03.150Z,2.00
2023-02-16T18:34:33.403Z,1.87
2023-02-16T18:37:01.942Z,2.17
2023-02-16T18:39:30.479Z,2.10
2023-02-16T18:41:58.943Z,2.03
2023-02-16T18:44:27.553Z,2.17
2023-02-16T18:46:57.476Z,2.00
2023-02-16T18:49:26.140Z,2.37
2023-02-16T18:51:54.670Z,1.80
2023-02-16T18:54:23.228Z,2.47
2023-02-16T18:56:52.056Z,2.30
2023-02-16T18:59:20.717Z,2.50
2023-02-16T19:01:49.347Z,2.03
2023-02-16T19:04:19.220Z,2.03
2023-02-16T19:06:47.849Z,1.80
2023-02-16T19:09:16.420Z,2.17
2023-02-16T19:11:44.916Z,1.90
2023-02-16T19:14:13.676Z,2.47
2023-02-16T19:16:42.632Z,1.67
2023-02-16T19:19:11.107Z,2.43
2023-02-16T19:21:41.472Z,2.13
2023-02-16T19:24:11.187Z,2.37
2023-02-16T19:26:39.940Z,2.30
2023-02-16T19:29:08.632Z,2.13
2023-02-16T19:31:37.272Z,1.97
2023-02-16T19:34:05.936Z,2.57
2023-02-16T19:36:34.597Z,2.20
2023-02-16T19:39:04.591Z,1.90
2023-02-16T19:41:34.026Z,2.00
2023-02-16T19:44:02.680Z,2.40
2023-02-16T19:46:32.922Z,2.03
2023-02-16T19:49:01.716Z,2.00
2023-02-16T19:51:30.292Z,1.90
2023-02-16T19:53:58.880Z,2.00
2023-02-16T19:56:31.408Z,2.13
2023-02-16T19:59:01.098Z,2.27
2023-02-16T20:01:30.248Z,2.00
2023-02-16T20:03:59.079Z,1.90
2023-02-16T20:06:31.833Z,1.97
2023-02-16T20:09:01.366Z,3.00
2023-02-16T20:11:31.804Z,1.97
2023-02-16T20:14:00.408Z,1.80
2023-02-16T20:16:29.618Z,1.93
2023-02-16T20:18:59.019Z,1.70
2023-02-16T20:21:28.377Z,2.00
2023-02-16T20:23:58.047Z,1.90
2023-02-16T20:26:28.597Z,2.17
2023-02-16T20:28:59.016Z,1.80
2023-02-16T20:31:28.792Z,2.33
2023-02-16T20:33:57.635Z,1.97
2023-02-16T20:36:26.531Z,1.90
2023-02-16T20:38:55.145Z,2.57
2023-02-16T20:41:23.621Z,2.10
2023-02-16T20:43:52.666Z,2.10
2023-02-16T20:46:23.576Z,1.47
2023-02-16T20:48:52.527Z,2.07
2023-02-16T20:51:21.569Z,2.17
2023-02-16T20:53:50.449Z,2.10
2023-02-16T20:56:21.304Z,1.53
2023-02-16T20:58:50.637Z,2.40
2023-02-16T21:01:21.688Z,2.07
2023-02-16T21:03:52.328Z,2.00
2023-02-16T21:06:20.887Z,2.17
2023-02-16T21:08:49.477Z,1.93
2023-02-16T21:11:18.349Z,2.27
2023-02-16T21:13:47.228Z,1.80
2023-02-16T21:16:16.226Z,1.93
2023-02-16T21:18:44.966Z,1.80
2023-02-16T21:21:16.380Z,1.70
2023-02-16T21:23:44.915Z,1.80
2023-02-16T21:26:13.687Z,1.33
2023-02-16T21:28:42.320Z,1.60
2023-02-16T21:31:13.013Z,1.80
2023-02-16T21:33:41.752Z,1.33
2023-02-16T21:36:11.613Z,1.67
2023-02-16T21:38:42.093Z,1.90
2023-02-16T21:41:24.891Z,2.00
2023-02-16T21:43:57.282Z,1.63
2023-02-16T21:46:26.003Z,1.67
2023-02-16T21:48:55.088Z,1.47
2023-02-16T21:51:25.276Z,1.43
2023-02-16T21:53:55.669Z,1.50
2023-02-16T21:56:24.872Z,1.30
2023-02-16T21:58:53.550Z,1.40
2023-02-16T22:01:24.883Z,1.50
2023-02-16T22:03:56.294Z,1.57
2023-02-16T22:06:25.699Z,1.57
2023-02-16T22:08:55.768Z,1.40
2023-02-16T22:11:24.267Z,1.57
2023-02-16T22:13:55.363Z,1.40
2023-02-16T22:16:23.864Z,1.30
2023-02-16T22:18:52.395Z,1.23
2023-02-16T22:21:21.064Z,1.57
2023-02-16T22:23:49.540Z,1.43
2023-02-16T22:26:25.371Z,1.10
2023-02-16T22:28:54.171Z,1.20
2023-02-16T22:31:23.433Z,1.23
2023-02-16T22:33:56.628Z,1.17
2023-02-16T22:36:25.502Z,1.30
2023-02-16T22:38:54.463Z,1.10
2023-02-16T22:41:25.744Z,1.00
2023-02-16T22:43:55.077Z,1.13
2023-02-16T22:46:24.541Z,1.07
2023-02-16T22:48:53.342Z,1.03
2023-02-16T22:51:22.813Z,1.10
2023-02-16T22:53:51.307Z,1.27
2023-02-16T22:56:20.995Z,1.00
2023-02-16T22:58:51.008Z,1.10
2023-02-16T23:01:21.921Z,1.10
2023-02-16T23:03:52.580Z,1.20
2023-02-16T23:06:22.093Z,1.20
2023-02-16T23:08:53.533Z,1.60
2023-02-16T23:11:22.194Z,1.33
2023-02-16T23:13:52.125Z,1.03
2023-02-16T23:16:21.880Z,1.17
2023-02-16T23:18:50.543Z,1.20
2023-02-16T23:21:20.006Z,1.23
2023-02-16T23:23:49.089Z,1.10
2023-02-16T23:26:18.073Z,1.30
2023-02-16T23:28:46.883Z,1.03
2023-02-16T23:31:16.911Z,1.40
2023-02-16T23:33:45.475Z,1.20
2023-02-16T23:36:14.042Z,1.20
2023-02-16T23:38:42.593Z,1.37
2023-02-16T23:41:12.938Z,1.20
2023-02-16T23:43:41.401Z,1.53
2023-02-16T23:46:10.495Z,1.37
2023-02-16T23:48:40.713Z,1.40
2023-02-16T23:51:11.953Z,1.30
2023-02-16T23:53:40.802Z,1.47
2023-02-16T23:56:10.202Z,1.20
2023-02-16T23:58:41.244Z,1.30
